Time;durP1;ratioP1;P1;durP2;ratioP2;P2;SDS_P1;SDS_P2;PMS_P1;PMS_P2;Temp;Humidity;BMP_temperature;BMP_pressure;BME280_temperature;BME280_humidity;BME280_pressure;Samples;Min_cycle;Max_cycle;Signal;HPM_P1;HPM_P2
2022/04/03 00:01:53;;;;;;;10.50;3.58;;;;;;;;;;6159454;23;20339;-92
2022/04/03 00:04:19;;;;;;;7.95;3.40;;;;;;;;;;6159898;23;20546;-92
2022/04/03 00:06:45;;;;;;;7.88;3.25;;;;;;;;;;6159511;23;20017;-94
2022/04/03 00:09:11;;;;;;;6.38;3.13;;;;;;;;;;6160306;23;20017;-93
2022/04/03 00:11:37;;;;;;;6.90;3.00;;;;;;;;;;6159594;23;20084;-93
2022/04/03 00:14:03;;;;;;;7.40;3.20;;;;;;;;;;6161590;23;20040;-93
2022/04/03 00:16:30;;;;;;;7.13;3.15;;;;;;;;;;6161038;23;20064;-94
2022/04/03 00:18:56;;;;;;;8.13;3.35;;;;;;;;;;6160044;23;20050;-92
2022/04/03 00:21:23;;;;;;;13.07;5.05;;;;;;;;;;6160067;23;20060;-95
2022/04/03 00:23:49;;;;;;;16.30;5.95;;;;;;;;;;6159453;23;20020;-92
2022/04/03 00:26:15;;;;;;;11.80;5.03;;;;;;;;;;6160243;23;20013;-94
2022/04/03 00:28:42;;;;;;;12.70;4.80;;;;;;;;;;6159784;23;20044;-94
2022/04/03 00:31:08;;;;;;;7.85;3.60;;;;;;;;;;6159525;23;20017;-94
2022/04/03 00:33:34;;;;;;;6.63;3.65;;;;;;;;;;6159499;23;20502;-95
2022/04/03 00:36:00;;;;;;;8.00;3.80;;;;;;;;;;6159943;23;20017;-94
2022/04/03 00:38:26;;;;;;;8.63;3.58;;;;;;;;;;6159364;23;20009;-94
2022/04/03 00:40:52;;;;;;;7.93;3.60;;;;;;;;;;6159934;23;20020;-92
2022/04/03 00:43:18;;;;;;;6.50;2.75;;;;;;;;;;6159414;23;20017;-94
2022/04/03 00:45:48;;;;;;;8.57;3.08;;;;;;;;;;6159641;23;20052;-93
2022/04/03 00:48:14;;;;;;;6.32;2.78;;;;;;;;;;6159434;23;20024;-94
2022/04/03 00:50:41;;;;;;;6.05;2.90;;;;;;;;;;6160103;23;20040;-93
2022/04/03 00:53:07;;;;;;;6.00;3.03;;;;;;;;;;6159096;23;20017;-93
2022/04/03 00:55:33;;;;;;;8.10;2.83;;;;;;;;;;6159659;23;20013;-92
2022/04/03 00:58:00;;;;;;;6.18;2.65;;;;;;;;;;6159344;23;20013;-93
2022/04/03 01:00:26;;;;;;;5.45;2.38;;;;;;;;;;6159640;23;20379;-94
2022/04/03 01:02:52;;;;;;;6.72;3.17;;;;;;;;;;6159829;23;20044;-94
2022/04/03 01:05:18;;;;;;;8.18;3.25;;;;;;;;;;6159588;23;20028;-93
2022/04/03 01:07:44;;;;;;;7.65;3.45;;;;;;;;;;6159413;23;20469;-94
2022/04/03 01:10:10;;;;;;;6.85;3.10;;;;;;;;;;6159521;23;20017;-93
2022/04/03 01:12:46;;;;;;;9.70;4.50;;;;;;;;;;6159116;23;20013;-93
2022/04/03 01:15:14;;;;;;;15.13;4.88;;;;;;;;;;6159491;23;20019;-94
2022/04/03 01:17:41;;;;;;;6.20;2.67;;;;;;;;;;6159389;23;20013;-92
2022/04/03 01:20:07;;;;;;;7.22;3.03;;;;;;;;;;6162010;23;20013;-93
2022/04/03 01:22:33;;;;;;;7.25;2.78;;;;;;;;;;6160952;23;20013;-93
2022/04/03 01:24:59;;;;;;;6.00;2.28;;;;;;;;;;6161236;23;20050;-92
2022/04/03 01:27:26;;;;;;;7.43;3.13;;;;;;;;;;6161775;23;20330;-93
2022/04/03 01:29:52;;;;;;;9.95;3.05;;;;;;;;;;6161578;23;20024;-95
2022/04/03 01:32:22;;;;;;;8.02;3.30;;;;;;;;;;6161555;23;20017;-92
2022/04/03 01:34:48;;;;;;;8.68;3.30;;;;;;;;;;6161033;23;20013;-93
2022/04/03 01:37:14;;;;;;;7.70;3.33;;;;;;;;;;6161427;23;20013;-94
2022/04/03 01:39:40;;;;;;;5.47;2.47;;;;;;;;;;6160742;23;20443;-93
2022/04/03 01:42:08;;;;;;;7.90;2.75;;;;;;;;;;6160984;23;20017;-95
2022/04/03 01:44:35;;;;;;;6.43;2.83;;;;;;;;;;6161247;23;20024;-93
2022/04/03 01:47:01;;;;;;;5.18;2.03;;;;;;;;;;6160979;23;20012;-94
2022/04/03 01:49:27;;;;;;;5.28;2.15;;;;;;;;;;6161056;23;20055;-94
2022/04/03 01:51:53;;;;;;;6.35;2.35;;;;;;;;;;6160861;23;20474;-93
2022/04/03 01:54:19;;;;;;;5.40;2.00;;;;;;;;;;6160875;23;20052;-94
2022/04/03 01:56:45;;;;;;;5.47;2.30;;;;;;;;;;6165093;23;20091;-94
2022/04/03 01:59:11;;;;;;;7.30;2.13;;;;;;;;;;6161260;23;20506;-93
2022/04/03 02:01:38;;;;;;;5.95;2.10;;;;;;;;;;6161066;23;20084;-94
2022/04/03 02:04:04;;;;;;;8.82;2.92;;;;;;;;;;6160456;23;20023;-95
2022/04/03 02:06:31;;;;;;;5.72;2.38;;;;;;;;;;6160666;23;20040;-94
2022/04/03 02:08:57;;;;;;;5.40;2.20;;;;;;;;;;6160534;23;20017;-93
2022/04/03 02:11:23;;;;;;;6.32;2.45;;;;;;;;;;6160877;23;20087;-92
2022/04/03 02:13:50;;;;;;;4.90;2.30;;;;;;;;;;6160577;23;20055;-93
2022/04/03 02:16:16;;;;;;;7.18;2.50;;;;;;;;;;6160769;23;20013;-93
2022/04/03 02:18:42;;;;;;;5.47;2.20;;;;;;;;;;6160774;23;20020;-93
2022/04/03 02:21:08;;;;;;;5.63;2.40;;;;;;;;;;6161038;23;20009;-93
2022/04/03 02:23:34;;;;;;;5.40;2.03;;;;;;;;;;6160562;23;20013;-93
2022/04/03 02:26:01;;;;;;;5.53;2.20;;;;;;;;;;6160709;23;20388;-93
2022/04/03 02:28:27;;;;;;;5.88;2.35;;;;;;;;;;6160718;23;20088;-92
2022/04/03 02:30:53;;;;;;;5.10;2.40;;;;;;;;;;6160221;23;20107;-93
2022/04/03 02:33:19;;;;;;;5.18;2.45;;;;;;;;;;6159861;23;20020;-92
2022/04/03 02:35:45;;;;;;;6.40;2.42;;;;;;;;;;6160634;23;20345;-93
2022/04/03 02:38:11;;;;;;;5.93;2.20;;;;;;;;;;6160396;23;20021;-93
2022/04/03 02:40:37;;;;;;;7.25;2.90;;;;;;;;;;6160619;23;20020;-94
2022/04/03 02:43:04;;;;;;;4.38;2.53;;;;;;;;;;6160755;23;20017;-92
2022/04/03 02:45:30;;;;;;;6.32;2.53;;;;;;;;;;6160302;23;20024;-94
2022/04/03 02:47:57;;;;;;;7.65;2.55;;;;;;;;;;6160325;23;20342;-94
2022/04/03 02:50:24;;;;;;;7.43;2.53;;;;;;;;;;6160206;23;20013;-94
2022/04/03 02:52:51;;;;;;;5.75;2.72;;;;;;;;;;6159931;23;20013;-91
2022/04/03 02:55:17;;;;;;;7.63;2.50;;;;;;;;;;6160286;23;20009;-93
2022/04/03 02:57:43;;;;;;;5.25;2.50;;;;;;;;;;6160368;23;20131;-93
2022/04/03 03:00:14;;;;;;;7.32;2.33;;;;;;;;;;6159980;23;20013;-95
2022/04/03 03:02:41;;;;;;;6.32;2.83;;;;;;;;;;6160443;23;20024;-94
2022/04/03 03:05:07;;;;;;;6.90;2.45;;;;;;;;;;6160034;23;20024;-93
2022/04/03 03:07:37;;;;;;;6.15;2.60;;;;;;;;;;6160245;23;20017;-95
2022/04/03 03:10:04;;;;;;;8.20;2.80;;;;;;;;;;6160028;23;20024;-94
2022/04/03 03:12:30;;;;;;;6.18;2.65;;;;;;;;;;6160427;23;20139;-92
2022/04/03 03:14:56;;;;;;;6.35;2.38;;;;;;;;;;6160407;23;20012;-93
2022/04/03 03:17:22;;;;;;;7.63;2.55;;;;;;;;;;6160732;23;20024;-95
2022/04/03 03:19:49;;;;;;;4.90;2.30;;;;;;;;;;6169091;23;20005;-93
2022/04/03 03:22:15;;;;;;;6.75;2.40;;;;;;;;;;6160228;23;20450;-93
2022/04/03 03:24:41;;;;;;;5.80;2.42;;;;;;;;;;6160063;23;20447;-93
2022/04/03 03:27:07;;;;;;;5.20;2.40;;;;;;;;;;6160859;23;20020;-93
2022/04/03 03:29:33;;;;;;;6.07;2.42;;;;;;;;;;6160199;23;20012;-95
2022/04/03 03:31:59;;;;;;;7.68;2.80;;;;;;;;;;6160270;23;20059;-95
2022/04/03 03:34:25;;;;;;;5.10;2.30;;;;;;;;;;6159910;23;20013;-93
2022/04/03 03:36:52;;;;;;;4.40;2.28;;;;;;;;;;6160379;23;20450;-93
2022/04/03 03:39:18;;;;;;;5.32;2.17;;;;;;;;;;6161686;23;20112;-94
2022/04/03 03:41:44;;;;;;;4.45;1.67;;;;;;;;;;6160597;23;20013;-94
2022/04/03 03:44:10;;;;;;;5.28;1.42;;;;;;;;;;6159937;23;20362;-94
2022/04/03 03:46:39;;;;;;;3.72;1.20;;;;;;;;;;6160212;23;20013;-94
2022/04/03 03:49:06;;;;;;;4.65;1.85;;;;;;;;;;6160091;23;20071;-92
2022/04/03 03:51:32;;;;;;;3.95;1.75;;;;;;;;;;6159836;23;20021;-95
2022/04/03 03:53:58;;;;;;;6.07;1.73;;;;;;;;;;6154911;23;20018;-94
2022/04/03 03:56:24;;;;;;;7.32;2.17;;;;;;;;;;6155492;23;20018;-93
2022/04/03 03:58:50;;;;;;;5.43;1.80;;;;;;;;;;6130537;23;20025;-95
2022/04/03 04:01:16;;;;;;;5.75;1.83;;;;;;;;;;6155140;23;20017;-94
2022/04/03 04:03:42;;;;;;;3.78;1.70;;;;;;;;;;6130420;23;20021;-92
2022/04/03 04:06:08;;;;;;;6.70;2.10;;;;;;;;;;6154682;23;20020;-94
2022/04/03 04:08:34;;;;;;;7.20;2.50;;;;;;;;;;6154915;23;20096;-93
2022/04/03 04:11:00;;;;;;;4.32;2.17;;;;;;;;;;6154742;23;20025;-93
2022/04/03 04:13:26;;;;;;;4.97;1.88;;;;;;;;;;6154802;23;20344;-92
2022/04/03 04:15:54;;;;;;;6.25;2.15;;;;;;;;;;6130459;23;20014;-95
2022/04/03 04:18:20;;;;;;;4.85;2.20;;;;;;;;;;6155481;23;20017;-95
2022/04/03 04:20:46;;;;;;;5.25;1.90;;;;;;;;;;6154755;23;20013;-95
2022/04/03 04:23:13;;;;;;;5.90;1.70;;;;;;;;;;6155042;23;20020;-94
2022/04/03 04:25:39;;;;;;;5.10;2.00;;;;;;;;;;6155065;23;20017;-93
2022/04/03 04:28:05;;;;;;;6.97;1.88;;;;;;;;;;6130968;23;20014;-93
2022/04/03 04:30:31;;;;;;;4.72;2.05;;;;;;;;;;6155558;23;20357;-94
2022/04/03 04:32:58;;;;;;;5.15;1.80;;;;;;;;;;6155632;23;20025;-94
2022/04/03 04:35:24;;;;;;;5.50;1.80;;;;;;;;;;6129975;23;20110;-93
2022/04/03 04:37:51;;;;;;;7.03;2.28;;;;;;;;;;6130260;23;20013;-93
2022/04/03 04:40:17;;;;;;;4.75;2.03;;;;;;;;;;6155158;23;20041;-93
2022/04/03 04:42:43;;;;;;;4.65;2.03;;;;;;;;;;6154791;23;20041;-94
2022/04/03 04:45:10;;;;;;;5.07;1.95;;;;;;;;;;6154637;23;20017;-92
2022/04/03 04:47:37;;;;;;;5.00;1.85;;;;;;;;;;6154842;23;20020;-93
2022/04/03 04:50:07;;;;;;;6.80;2.30;;;;;;;;;;6154553;23;20020;-93
2022/04/03 04:52:33;;;;;;;5.55;2.15;;;;;;;;;;6154877;23;20018;-93
2022/04/03 04:54:59;;;;;;;8.35;2.20;;;;;;;;;;6156469;23;20014;-94
2022/04/03 04:57:25;;;;;;;5.57;2.35;;;;;;;;;;6131973;23;20350;-94
2022/04/03 04:59:51;;;;;;;6.53;2.28;;;;;;;;;;6156337;23;20017;-93
2022/04/03 05:02:17;;;;;;;4.82;2.00;;;;;;;;;;6131862;23;20013;-94
2022/04/03 05:04:43;;;;;;;5.43;2.20;;;;;;;;;;6132067;23;20096;-94
2022/04/03 05:07:10;;;;;;;3.45;1.80;;;;;;;;;;6156528;23;20052;-95
2022/04/03 05:09:36;;;;;;;7.80;2.42;;;;;;;;;;6156728;23;20018;-94
2022/04/03 05:12:02;;;;;;;4.57;1.98;;;;;;;;;;6131791;23;20432;-91
2022/04/03 05:14:28;;;;;;;5.93;2.22;;;;;;;;;;6159261;23;20426;-94
2022/04/03 05:16:54;;;;;;;5.18;2.20;;;;;;;;;;6132141;23;20041;-94
2022/04/03 05:19:24;;;;;;;5.00;2.10;;;;;;;;;;6156535;23;20020;-94
2022/04/03 05:21:50;;;;;;;5.40;2.63;;;;;;;;;;6156444;23;20048;-94
2022/04/03 05:24:17;;;;;;;4.82;2.22;;;;;;;;;;6132086;23;20014;-93
2022/04/03 05:26:43;;;;;;;5.40;2.63;;;;;;;;;;6156451;23;20474;-94
2022/04/03 05:29:09;;;;;;;5.82;2.47;;;;;;;;;;6157424;23;20041;-94
2022/04/03 05:31:36;;;;;;;6.53;2.55;;;;;;;;;;6131548;23;20017;-94
2022/04/03 05:34:02;;;;;;;5.22;2.10;;;;;;;;;;6132065;23;20076;-94
2022/04/03 05:36:28;;;;;;;5.82;2.22;;;;;;;;;;6156772;23;20017;-94
2022/04/03 05:38:54;;;;;;;6.25;2.35;;;;;;;;;;6156568;23;20409;-94
2022/04/03 05:41:20;;;;;;;6.45;2.35;;;;;;;;;;6155887;23;20032;-93
2022/04/03 05:43:46;;;;;;;7.63;2.53;;;;;;;;;;6156658;23;20446;-93
2022/04/03 05:46:12;;;;;;;5.80;2.38;;;;;;;;;;6131400;23;20013;-93
2022/04/03 05:48:38;;;;;;;5.00;2.45;;;;;;;;;;6156737;23;20028;-93
2022/04/03 05:51:04;;;;;;;8.30;2.30;;;;;;;;;;6156682;23;20024;-93
2022/04/03 05:53:30;;;;;;;7.55;2.58;;;;;;;;;;6131716;23;20018;-93
2022/04/03 05:55:56;;;;;;;4.82;2.38;;;;;;;;;;6155989;23;20457;-94
2022/04/03 05:58:24;;;;;;;5.35;2.10;;;;;;;;;;6131597;23;20088;-93
2022/04/03 06:00:50;;;;;;;5.22;1.98;;;;;;;;;;6156463;23;20018;-95
2022/04/03 06:03:16;;;;;;;6.35;2.40;;;;;;;;;;6156725;23;20032;-93
2022/04/03 06:05:42;;;;;;;6.93;3.08;;;;;;;;;;6155776;23;20042;-92
2022/04/03 06:08:10;;;;;;;5.53;1.95;;;;;;;;;;6156104;23;20081;-95
2022/04/03 06:10:36;;;;;;;6.40;2.10;;;;;;;;;;6131871;23;20316;-94
2022/04/03 06:13:04;;;;;;;6.72;2.20;;;;;;;;;;6157893;23;20023;-95
2022/04/03 06:15:37;;;;;;;6.10;2.10;;;;;;;;;;6135482;23;20041;-94
2022/04/03 06:18:04;;;;;;;9.43;2.22;;;;;;;;;;6136677;23;20081;-93
2022/04/03 06:20:30;;;;;;;5.50;2.25;;;;;;;;;;6161389;23;20014;-94
2022/04/03 06:22:59;;;;;;;6.30;2.28;;;;;;;;;;6160711;23;20017;-93
2022/04/03 06:25:25;;;;;;;4.65;1.90;;;;;;;;;;6159791;23;20014;-94
2022/04/03 06:27:54;;;;;;;7.00;2.22;;;;;;;;;;6135633;23;20017;-93
2022/04/03 06:30:21;;;;;;;6.57;2.13;;;;;;;;;;6133206;23;20017;-93
2022/04/03 06:32:47;;;;;;;7.07;2.55;;;;;;;;;;6158973;23;20098;-95
2022/04/03 06:35:14;;;;;;;7.10;2.45;;;;;;;;;;6157176;23;20119;-95
2022/04/03 06:37:40;;;;;;;5.20;2.40;;;;;;;;;;6161418;23;20017;-94
2022/04/03 06:40:07;;;;;;;6.43;2.47;;;;;;;;;;6161193;23;20045;-93
2022/04/03 06:42:33;;;;;;;8.60;3.03;;;;;;;;;;6163023;23;20068;-92
2022/04/03 06:45:00;;;;;;;5.47;2.38;;;;;;;;;;6163517;23;20021;-94
2022/04/03 06:47:26;;;;;;;10.27;2.60;;;;;;;;;;6160544;23;20013;-92
2022/04/03 06:49:52;;;;;;;5.45;2.22;;;;;;;;;;6158500;23;20014;-94
2022/04/03 06:52:18;;;;;;;6.03;2.17;;;;;;;;;;6161237;23;20081;-94
2022/04/03 06:54:44;;;;;;;5.65;2.28;;;;;;;;;;6162223;23;20019;-94
2022/04/03 06:57:19;;;;;;;5.97;2.28;;;;;;;;;;6178967;23;20076;-93
2022/04/03 06:59:46;;;;;;;8.88;2.05;;;;;;;;;;6199778;23;20021;-94
2022/04/03 07:02:12;;;;;;;6.38;1.85;;;;;;;;;;6162091;23;20008;-93
2022/04/03 07:04:38;;;;;;;5.07;1.65;;;;;;;;;;6161938;23;20060;-94
2022/04/03 07:07:04;;;;;;;6.15;1.48;;;;;;;;;;6185605;23;20013;-92
2022/04/03 07:09:31;;;;;;;6.03;1.50;;;;;;;;;;6160342;23;20009;-94
2022/04/03 07:11:57;;;;;;;3.53;1.17;;;;;;;;;;6160112;23;20068;-94
2022/04/03 07:14:23;;;;;;;5.68;1.80;;;;;;;;;;6160611;23;20019;-93
2022/04/03 07:16:49;;;;;;;4.60;1.50;;;;;;;;;;6159695;23;20045;-93
2022/04/03 07:19:15;;;;;;;6.35;1.52;;;;;;;;;;6161630;23;20087;-94
2022/04/03 07:21:41;;;;;;;6.13;1.85;;;;;;;;;;6180458;23;20013;-94
2022/04/03 07:24:07;;;;;;;6.45;1.33;;;;;;;;;;6160239;23;20017;-95
2022/04/03 07:26:34;;;;;;;4.43;1.30;;;;;;;;;;6159946;23;20009;-93
2022/04/03 07:29:00;;;;;;;3.85;1.50;;;;;;;;;;6161151;23;20013;-92
2022/04/03 07:31:28;;;;;;;4.22;1.48;;;;;;;;;;6159853;23;20013;-92
2022/04/03 07:33:54;;;;;;;5.35;1.70;;;;;;;;;;6160497;23;20062;-94
2022/04/03 07:36:20;;;;;;;4.00;1.63;;;;;;;;;;6160820;23;20048;-94
2022/04/03 07:38:46;;;;;;;8.38;1.80;;;;;;;;;;6161106;23;20016;-93
2022/04/03 07:41:12;;;;;;;5.22;2.03;;;;;;;;;;6159727;23;20087;-93
2022/04/03 07:43:38;;;;;;;4.78;1.30;;;;;;;;;;6160686;23;20027;-94
2022/04/03 07:46:17;;;;;;;;;;;;;;;;;;;;;
2022/04/03 07:58:42;;;;;;;4.57;2.08;;;;;;;;;;6224521;23;20007;-92
2022/04/03 08:01:10;;;;;;;5.80;1.63;;;;;;;;;;6196549;23;20031;-93
2022/04/03 08:03:37;;;;;;;5.13;1.85;;;;;;;;;;6171790;23;20013;-94
2022/04/03 08:06:04;;;;;;;3.85;1.30;;;;;;;;;;6167930;23;20558;-91
2022/04/03 08:08:30;;;;;;;4.30;1.67;;;;;;;;;;6160134;23;20041;-93
2022/04/03 08:10:56;;;;;;;4.65;1.20;;;;;;;;;;6161035;23;20021;-93
2022/04/03 08:13:35;;;;;;;8.02;1.50;;;;;;;;;;6163317;23;20020;-94
2022/04/03 08:16:04;;;;;;;5.78;1.67;;;;;;;;;;6161487;23;20009;-94
2022/04/03 08:18:30;;;;;;;4.60;1.20;;;;;;;;;;6161097;23;20013;-93
2022/04/03 08:20:56;;;;;;;4.90;1.23;;;;;;;;;;6161159;23;20009;-94
2022/04/03 08:23:22;;;;;;;4.32;1.00;;;;;;;;;;6160358;23;20017;-93
2022/04/03 08:25:48;;;;;;;4.03;1.10;;;;;;;;;;6159781;23;20021;-94
2022/04/03 08:28:22;;;;;;;4.10;1.13;;;;;;;;;;6161544;23;20184;-95
2022/04/03 08:30:48;;;;;;;2.42;0.93;;;;;;;;;;6162886;23;20021;-94
2022/04/03 08:33:17;;;;;;;3.33;0.95;;;;;;;;;;6161502;23;20051;-92
2022/04/03 08:35:43;;;;;;;3.80;1.10;;;;;;;;;;6161780;23;20013;-91
2022/04/03 08:38:09;;;;;;;3.72;1.00;;;;;;;;;;6161943;23;20109;-93
2022/04/03 08:40:38;;;;;;;4.35;1.40;;;;;;;;;;6162122;23;20013;-94
2022/04/03 08:43:05;;;;;;;2.83;0.85;;;;;;;;;;6161662;23;20020;-94
2022/04/03 08:45:31;;;;;;;2.97;0.80;;;;;;;;;;6162017;23;20068;-93
2022/04/03 08:48:00;;;;;;;3.97;0.80;;;;;;;;;;6161897;23;20017;-92
2022/04/03 08:50:31;;;;;;;4.30;0.68;;;;;;;;;;6161953;23;20104;-94
2022/04/03 08:52:58;;;;;;;4.75;1.05;;;;;;;;;;6161528;23;20075;-91
2022/04/03 08:55:24;;;;;;;3.40;0.80;;;;;;;;;;6161639;23;20020;-93
2022/04/03 08:57:51;;;;;;;2.40;0.60;;;;;;;;;;6161583;23;20059;-95
2022/04/03 09:00:17;;;;;;;4.00;0.82;;;;;;;;;;6187674;23;20013;-93
2022/04/03 09:02:47;;;;;;;4.07;0.82;;;;;;;;;;6161609;23;20019;-94
2022/04/03 09:05:14;;;;;;;2.55;0.50;;;;;;;;;;6162442;23;20072;-92
2022/04/03 09:07:48;;;;;;;4.38;0.85;;;;;;;;;;6163471;23;20024;-94
2022/04/03 09:10:17;;;;;;;5.30;0.80;;;;;;;;;;6164962;23;20446;-92
2022/04/03 09:12:47;;;;;;;3.35;0.70;;;;;;;;;;6186194;23;20017;-92
2022/04/03 09:15:14;;;;;;;6.18;0.75;;;;;;;;;;6187756;23;20009;-93
2022/04/03 09:17:44;;;;;;;4.15;0.75;;;;;;;;;;6160850;23;20088;-92
2022/04/03 09:20:12;;;;;;;3.53;0.80;;;;;;;;;;6160954;23;20013;-92
2022/04/03 09:22:38;;;;;;;2.70;0.70;;;;;;;;;;6160292;23;20024;-91
2022/04/03 09:25:12;;;;;;;4.57;0.80;;;;;;;;;;6160805;23;20017;-94
2022/04/03 09:27:51;;;;;;;6.25;1.15;;;;;;;;;;6158801;23;20390;-92
2022/04/03 09:30:19;;;;;;;5.38;1.00;;;;;;;;;;6187510;23;20013;-93
2022/04/03 09:32:55;;;;;;;5.90;0.95;;;;;;;;;;6160878;23;20395;-92
2022/04/03 09:35:24;;;;;;;2.13;0.57;;;;;;;;;;6161470;23;20048;-93
2022/04/03 09:38:05;;;;;;;2.70;0.68;;;;;;;;;;6187479;23;20017;-92
2022/04/03 09:40:32;;;;;;;2.85;0.65;;;;;;;;;;6160525;23;20020;-94
2022/04/03 09:43:12;;;;;;;3.55;0.90;;;;;;;;;;6187235;23;20334;-93
2022/04/03 09:45:43;;;;;;;5.75;0.73;;;;;;;;;;6161762;23;20052;-93
2022/04/03 09:48:22;;;;;;;5.53;1.10;;;;;;;;;;6187482;23;20088;-92
2022/04/03 09:51:07;;;;;;;5.00;0.77;;;;;;;;;;6161137;23;20459;-93
2022/04/03 09:53:43;;;;;;;4.47;0.60;;;;;;;;;;6160815;23;20042;-93
2022/04/03 09:56:10;;;;;;;3.33;0.40;;;;;;;;;;6160911;23;20489;-93
2022/04/03 09:58:51;;;;;;;2.42;0.45;;;;;;;;;;6161930;23;20009;-92
2022/04/03 10:01:26;;;;;;;2.85;0.38;;;;;;;;;;6162260;23;20443;-94
2022/04/03 10:03:53;;;;;;;4.03;0.90;;;;;;;;;;6161469;23;20027;-94
2022/04/03 10:06:19;;;;;;;1.75;0.30;;;;;;;;;;6160563;23;20017;-92
2022/04/03 10:08:48;;;;;;;2.72;0.52;;;;;;;;;;6160491;23;20017;-92
2022/04/03 10:11:15;;;;;;;2.83;0.38;;;;;;;;;;6160582;23;20092;-94
2022/04/03 10:13:42;;;;;;;4.38;0.57;;;;;;;;;;6159264;23;20013;-92
2022/04/03 10:16:08;;;;;;;1.40;0.47;;;;;;;;;;6161441;23;20035;-93
2022/04/03 10:18:34;;;;;;;1.50;0.52;;;;;;;;;;6158568;23;20017;-92
2022/04/03 10:21:01;;;;;;;4.45;0.60;;;;;;;;;;6162331;23;20513;-93
2022/04/03 10:23:28;;;;;;;2.42;0.75;;;;;;;;;;6160787;23;20021;-94
2022/04/03 10:25:56;;;;;;;3.53;0.60;;;;;;;;;;6163464;23;20028;-93
2022/04/03 10:28:23;;;;;;;3.67;0.60;;;;;;;;;;6163613;23;20024;-92
2022/04/03 10:30:58;;;;;;;2.95;0.50;;;;;;;;;;6161338;23;20017;-93
2022/04/03 10:33:24;;;;;;;1.58;0.28;;;;;;;;;;6164593;23;20023;-94
2022/04/03 10:36:02;;;;;;;2.28;0.32;;;;;;;;;;6160922;23;20009;-94
2022/04/03 10:38:34;;;;;;;3.33;0.60;;;;;;;;;;6166072;23;20048;-92
2022/04/03 10:41:00;;;;;;;3.90;0.45;;;;;;;;;;6164127;23;20017;-93
2022/04/03 10:43:30;;;;;;;3.03;0.52;;;;;;;;;;6163211;23;20028;-93
2022/04/03 10:45:56;;;;;;;2.45;0.47;;;;;;;;;;6187340;23;20046;-90
2022/04/03 10:48:22;;;;;;;1.85;0.50;;;;;;;;;;6189108;23;20017;-94
2022/04/03 10:51:00;;;;;;;3.65;0.75;;;;;;;;;;6165526;23;20358;-94
2022/04/03 10:53:28;;;;;;;4.00;0.50;;;;;;;;;;6162696;23;20017;-93
2022/04/03 10:55:58;;;;;;;5.03;0.73;;;;;;;;;;6161541;23;20021;-93
2022/04/03 10:58:24;;;;;;;8.93;0.90;;;;;;;;;;6162951;23;20017;-93
2022/04/03 11:00:51;;;;;;;4.40;1.00;;;;;;;;;;6163481;23;20013;-92
2022/04/03 11:03:17;;;;;;;2.10;0.60;;;;;;;;;;6161226;23;20071;-94
2022/04/03 11:05:46;;;;;;;3.53;0.63;;;;;;;;;;6165905;23;20013;-95
2022/04/03 11:08:12;;;;;;;4.40;0.57;;;;;;;;;;6167231;23;20481;-93
2022/04/03 11:10:57;;;;;;;6.18;0.88;;;;;;;;;;6161716;23;20021;-92
2022/04/03 11:13:24;;;;;;;2.92;0.63;;;;;;;;;;6162783;23;20068;-93
2022/04/03 11:15:51;;;;;;;4.00;0.75;;;;;;;;;;6161952;23;20398;-94
2022/04/03 11:18:45;;;;;;;1.98;0.20;;;;;;;;;;6163403;23;20320;-93
2022/04/03 11:21:11;;;;;;;1.58;0.30;;;;;;;;;;6134483;23;20041;-95
2022/04/03 11:23:37;;;;;;;2.33;0.40;;;;;;;;;;6163998;23;20047;-93
2022/04/03 11:26:04;;;;;;;2.72;0.60;;;;;;;;;;6165303;23;20092;-93
2022/04/03 11:28:32;;;;;;;5.00;0.80;;;;;;;;;;6161831;23;20017;-93
2022/04/03 11:30:59;;;;;;;3.35;0.70;;;;;;;;;;6162814;23;20157;-94
2022/04/03 11:33:26;;;;;;;1.50;0.55;;;;;;;;;;6163290;23;20471;-92
2022/04/03 11:35:53;;;;;;;4.18;0.90;;;;;;;;;;6168128;23;20223;-91
2022/04/03 11:38:20;;;;;;;5.93;1.02;;;;;;;;;;6181300;23;20017;-90
2022/04/03 11:40:47;;;;;;;3.80;0.77;;;;;;;;;;6170343;23;20016;-93
2022/04/03 11:43:14;;;;;;;3.30;0.70;;;;;;;;;;6176336;23;20047;-92
2022/04/03 11:45:40;;;;;;;4.00;0.88;;;;;;;;;;6202948;23;20065;-92
2022/04/03 11:48:13;;;;;;;5.13;1.00;;;;;;;;;;6172702;23;20013;-94
2022/04/03 11:50:39;;;;;;;4.13;0.60;;;;;;;;;;6196994;23;20013;-92
2022/04/03 11:53:09;;;;;;;3.85;0.88;;;;;;;;;;6162870;23;20055;-94
2022/04/03 11:55:35;;;;;;;3.63;0.80;;;;;;;;;;6186233;23;20024;-93
2022/04/03 11:58:04;;;;;;;4.60;0.80;;;;;;;;;;6189076;23;20017;-93
2022/04/03 12:00:31;;;;;;;3.47;0.70;;;;;;;;;;6190548;23;20028;-93
2022/04/03 12:02:57;;;;;;;1.58;0.65;;;;;;;;;;6179769;23;20013;-93
2022/04/03 12:05:23;;;;;;;3.33;0.70;;;;;;;;;;6217882;23;20024;-93
2022/04/03 12:07:50;;;;;;;3.83;0.90;;;;;;;;;;6194121;23;20055;-92
2022/04/03 12:10:26;;;;;;;2.78;0.70;;;;;;;;;;6224237;23;20021;-91
2022/04/03 12:12:55;;;;;;;2.72;0.88;;;;;;;;;;6207653;23;20020;-94
2022/04/03 12:15:23;;;;;;;3.25;0.80;;;;;;;;;;6216288;23;20020;-91
2022/04/03 12:17:55;;;;;;;3.33;0.90;;;;;;;;;;6217458;23;20016;-92
2022/04/03 12:20:21;;;;;;;5.57;0.80;;;;;;;;;;6216341;23;20017;-92
2022/04/03 12:22:51;;;;;;;3.33;0.70;;;;;;;;;;6195292;23;20388;-92
2022/04/03 12:25:17;;;;;;;3.25;0.70;;;;;;;;;;6213854;23;20147;-94
2022/04/03 12:27:44;;;;;;;2.13;0.73;;;;;;;;;;6215964;23;20021;-91
2022/04/03 12:30:10;;;;;;;3.60;0.60;;;;;;;;;;6220945;23;20095;-94
2022/04/03 12:32:56;;;;;;;;;;;;;;;;;;;;;
2022/04/03 12:35:31;;;;;;;1.88;0.50;;;;;;;;;;6237884;23;20013;-94
2022/04/03 12:37:57;;;;;;;1.38;0.20;;;;;;;;;;6216659;23;20108;-94
2022/04/03 12:40:33;;;;;;;1.27;0.28;;;;;;;;;;6227245;23;20020;-92
2022/04/03 12:45:35;;;;;;;2.42;0.30;;;;;;;;;;6214201;22;20021;-94
2022/04/03 12:48:06;;;;;;;1.75;0.25;;;;;;;;;;6229966;23;20028;-91
2022/04/03 12:50:46;;;;;;;2.05;0.40;;;;;;;;;;6193469;23;20031;-90
2022/04/03 12:59:57;;;;;;;4.20;0.50;;;;;;;;;;6232374;22;20107;-91
2022/04/03 13:02:36;;;;;;;3.38;0.65;;;;;;;;;;6218663;23;20019;-91
2022/04/03 13:05:02;;;;;;;3.50;0.60;;;;;;;;;;6245310;23;20016;-93
2022/04/03 13:07:28;;;;;;;1.05;0.40;;;;;;;;;;6219200;23;20099;-93
2022/04/03 13:09:57;;;;;;;2.25;0.50;;;;;;;;;;6219520;23;20040;-92
2022/04/03 13:12:27;;;;;;;2.33;0.60;;;;;;;;;;6218384;23;20016;-94
2022/04/03 13:15:00;;;;;;;4.47;0.60;;;;;;;;;;6222792;23;20389;-95
2022/04/03 13:17:26;;;;;;;5.80;0.57;;;;;;;;;;6219838;23;20012;-94
2022/04/03 13:19:53;;;;;;;3.58;0.60;;;;;;;;;;6216115;23;20013;-94
2022/04/03 13:22:19;;;;;;;2.25;0.63;;;;;;;;;;6217711;23;20012;-92
2022/04/03 13:24:45;;;;;;;3.13;0.55;;;;;;;;;;6217637;23;20303;-95
2022/04/03 13:27:11;;;;;;;3.13;0.77;;;;;;;;;;6214754;23;20016;-94
2022/04/03 13:29:38;;;;;;;3.33;0.90;;;;;;;;;;6218087;23;20004;-94
2022/04/03 13:32:07;;;;;;;4.22;1.00;;;;;;;;;;6216883;23;20020;-93
2022/04/03 13:34:33;;;;;;;3.33;0.63;;;;;;;;;;6221009;23;20012;-94
2022/04/03 13:36:59;;;;;;;3.17;0.80;;;;;;;;;;6215453;23;20020;-95
2022/04/03 13:39:25;;;;;;;2.97;0.85;;;;;;;;;;6219445;23;20009;-95
2022/04/03 13:41:52;;;;;;;6.10;1.00;;;;;;;;;;6214943;23;20071;-93
2022/04/03 13:44:20;;;;;;;2.92;0.70;;;;;;;;;;6191931;23;20063;-93
2022/04/03 13:46:46;;;;;;;2.80;0.80;;;;;;;;;;6189568;23;20152;-94
2022/04/03 13:49:13;;;;;;;7.65;1.10;;;;;;;;;;6215844;23;20348;-93
2022/04/03 13:51:40;;;;;;;3.45;1.02;;;;;;;;;;6212515;23;20013;-94
2022/04/03 13:54:06;;;;;;;4.80;1.13;;;;;;;;;;6215937;23;20008;-94
2022/04/03 13:56:32;;;;;;;6.13;1.30;;;;;;;;;;6214758;23;20012;-93
2022/04/03 13:59:00;;;;;;;3.08;0.90;;;;;;;;;;6216071;23;20012;-94
2022/04/03 14:01:27;;;;;;;3.45;1.02;;;;;;;;;;6215110;23;20013;-94
2022/04/03 14:03:53;;;;;;;4.55;1.00;;;;;;;;;;6191557;23;20023;-94
2022/04/03 14:06:19;;;;;;;4.85;1.15;;;;;;;;;;6215797;23;20489;-94
2022/04/03 14:08:45;;;;;;;2.65;0.80;;;;;;;;;;6216885;23;20465;-94
2022/04/03 14:11:12;;;;;;;4.32;1.10;;;;;;;;;;6196404;23;20020;-95
2022/04/03 14:13:38;;;;;;;4.82;1.10;;;;;;;;;;6217610;23;20425;-95
2022/04/03 14:16:05;;;;;;;6.38;1.05;;;;;;;;;;6217910;23;20096;-94
2022/04/03 14:18:31;;;;;;;7.90;1.42;;;;;;;;;;6218414;23;20080;-93
2022/04/03 14:20:59;;;;;;;3.92;1.02;;;;;;;;;;6219083;23;20016;-93
2022/04/03 14:23:36;;;;;;;4.18;1.30;;;;;;;;;;6191646;23;20020;-94
2022/04/03 14:26:03;;;;;;;2.20;0.75;;;;;;;;;;6191429;23;20048;-93
2022/04/03 14:28:30;;;;;;;4.60;1.10;;;;;;;;;;6190183;23;20035;-93
2022/04/03 14:30:56;;;;;;;3.67;0.90;;;;;;;;;;6215337;23;20116;-94
2022/04/03 14:33:22;;;;;;;3.17;0.80;;;;;;;;;;6215753;23;20090;-94
2022/04/03 14:35:48;;;;;;;4.25;0.98;;;;;;;;;;6214846;23;20454;-93
2022/04/03 14:38:14;;;;;;;3.70;0.85;;;;;;;;;;6216623;23;20009;-93
2022/04/03 14:40:40;;;;;;;4.53;1.00;;;;;;;;;;6215073;23;20009;-95
2022/04/03 14:43:06;;;;;;;2.80;0.80;;;;;;;;;;6213971;23;20016;-94
2022/04/03 14:45:34;;;;;;;3.25;0.70;;;;;;;;;;6215121;23;20017;-93
2022/04/03 14:48:01;;;;;;;7.68;3.05;;;;;;;;;;6216358;23;20021;-95
2022/04/03 14:50:29;;;;;;;5.90;1.10;;;;;;;;;;6190016;23;20016;-93
2022/04/03 14:52:56;;;;;;;4.00;1.33;;;;;;;;;;6214221;23;20021;-93
2022/04/03 14:55:22;;;;;;;3.63;1.10;;;;;;;;;;6191583;23;20032;-94
2022/04/03 14:57:48;;;;;;;3.03;0.95;;;;;;;;;;6216289;23;20446;-94
2022/04/03 15:00:14;;;;;;;4.22;1.00;;;;;;;;;;6217181;23;20012;-92
2022/04/03 15:02:41;;;;;;;4.25;1.25;;;;;;;;;;6214539;23;20082;-92
2022/04/03 15:05:10;;;;;;;3.22;1.00;;;;;;;;;;6223038;23;20023;-93
2022/04/03 15:07:36;;;;;;;6.38;2.22;;;;;;;;;;6201715;23;20017;-93